createdAt,value
2022-11-27T00:02:59.438Z,101909.28
2022-11-27T00:07:01.630Z,101912.69
2022-11-27T00:11:12.664Z,101894.16
2022-11-27T00:15:17.295Z,101876.91
2022-11-27T00:19:22.059Z,101874.22
2022-11-27T00:23:26.788Z,101874.13
2022-11-27T00:27:29.012Z,101860.41
2022-11-27T00:31:32.841Z,101860.03
2022-11-27T00:35:35.049Z,101840.25
2022-11-27T00:39:37.176Z,101831.34
2022-11-27T00:43:44.685Z,101820.72
2022-11-27T00:47:47.570Z,101822.25
2022-11-27T00:51:49.729Z,101815.28
2022-11-27T00:55:51.924Z,101829.47
2022-11-27T00:59:54.020Z,101821.63
2022-11-27T01:03:59.714Z,101829.88
2022-11-27T01:08:02.011Z,101823.28
2022-11-27T01:12:04.518Z,101825.34
2022-11-27T01:16:08.196Z,101826.50
2022-11-27T01:20:12.542Z,101817.88
2022-11-27T01:24:15.765Z,101820.31
2022-11-27T01:28:17.366Z,101818.16
2022-11-27T01:32:18.957Z,101804.47
2022-11-27T01:36:21.406Z,101813.59
2022-11-27T01:40:23.667Z,101807.41
2022-11-27T01:44:25.252Z,101806.50
2022-11-27T01:48:26.904Z,101807.16
2022-11-27T01:52:34.553Z,101809.19
2022-11-27T01:56:40.228Z,101799.69
2022-11-27T02:00:41.779Z,101805.66
2022-11-27T02:04:43.827Z,101806.13
2022-11-27T02:08:45.722Z,101816.28
2022-11-27T02:12:50.110Z,101813.94
2022-11-27T02:17:02.600Z,101810.63
2022-11-27T02:21:26.002Z,101800.88
2022-11-27T02:25:37.756Z,101810.84
2022-11-27T02:29:40.838Z,101810.09
2022-11-27T02:33:46.596Z,101818.38
2022-11-27T02:37:56.847Z,101823.72
2022-11-27T02:42:11.307Z,101833.38
2022-11-27T02:46:14.203Z,101834.75
2022-11-27T02:50:20.717Z,101817.50
2022-11-27T02:54:26.797Z,101796.81
2022-11-27T02:58:29.757Z,101800.13
2022-11-27T03:02:36.938Z,101798.91
2022-11-27T03:06:47.591Z,101777.25
2022-11-27T03:11:00.523Z,101779.16
2022-11-27T03:15:02.097Z,101776.63
2022-11-27T03:19:19.497Z,101774.25
2022-11-27T03:23:21.057Z,101782.19
2022-11-27T03:27:28.187Z,101776.91
2022-11-27T03:31:30.481Z,101768.56
2022-11-27T03:35:32.038Z,101760.50
2022-11-27T03:39:34.262Z,101760.75
2022-11-27T03:43:44.197Z,101756.06
2022-11-27T03:48:01.818Z,101748.59
2022-11-27T03:52:36.225Z,101754.44
2022-11-27T03:56:48.980Z,101750.50
2022-11-27T04:00:52.560Z,101757.97
2022-11-27T04:04:54.107Z,101755.56
2022-11-27T04:08:55.649Z,101754.94
2022-11-27T04:12:57.158Z,101752.53
2022-11-27T04:16:58.753Z,101753.56
2022-11-27T04:21:00.362Z,101761.19
2022-11-27T04:25:01.887Z,101751.41
2022-11-27T04:29:03.394Z,101751.91
2022-11-27T04:33:04.970Z,101766.09
2022-11-27T04:37:06.518Z,101757.13
2022-11-27T04:41:08.083Z,101749.38
2022-11-27T04:45:10.147Z,101728.72
2022-11-27T04:49:11.731Z,101714.81
2022-11-27T04:53:13.356Z,101716.19
2022-11-27T04:57:14.927Z,101727.97
2022-11-27T05:01:16.683Z,101726.84
2022-11-27T05:05:18.259Z,101724.06
2022-11-27T05:09:20.039Z,101723.44
2022-11-27T05:13:21.586Z,101722.50
2022-11-27T05:17:23.218Z,101724.03
2022-11-27T05:21:24.821Z,101711.50
2022-11-27T05:25:26.356Z,101717.31
2022-11-27T05:29:27.976Z,101716.91
2022-11-27T05:33:29.459Z,101705.50
2022-11-27T05:37:30.999Z,101703.75
2022-11-27T05:41:33.381Z,101715.53
2022-11-27T05:45:37.148Z,101700.31
2022-11-27T05:49:39.163Z,101707.78
2022-11-27T05:53:40.960Z,101694.09
2022-11-27T05:57:42.602Z,101691.72
2022-11-27T06:01:44.334Z,101695.91
2022-11-27T06:05:45.913Z,101697.50
2022-11-27T06:09:47.419Z,101703.38
2022-11-27T06:13:50.064Z,101697.28
2022-11-27T06:17:51.724Z,101686.16
2022-11-27T06:21:53.255Z,101674.34
2022-11-27T06:25:54.859Z,101672.69
2022-11-27T06:29:56.365Z,101665.88
2022-11-27T06:33:58.463Z,101655.50
2022-11-27T06:37:59.971Z,101669.94
2022-11-27T06:42:01.528Z,101648.63
2022-11-27T06:46:06.933Z,101647.13
2022-11-27T06:50:08.737Z,101675.63
2022-11-27T06:54:10.252Z,101672.72
2022-11-27T06:58:12.279Z,101667.25
2022-11-27T07:02:15.016Z,101652.44
2022-11-27T07:06:20.591Z,101636.44
2022-11-27T07:10:22.422Z,101644.44
2022-11-27T07:14:24.039Z,101645.56
2022-11-27T07:18:25.595Z,101616.78
2022-11-27T07:22:27.179Z,101630.97
2022-11-27T07:26:29.744Z,101619.56
2022-11-27T07:30:31.275Z,101614.88
2022-11-27T07:34:32.840Z,101607.34
2022-11-27T07:38:34.715Z,101627.53
2022-11-27T07:42:38.785Z,101638.28
2022-11-27T07:46:40.703Z,101648.13
2022-11-27T07:50:42.231Z,101659.06
2022-11-27T07:54:43.874Z,101625.97
2022-11-27T07:58:46.031Z,101607.94
2022-11-27T08:02:47.588Z,101602.88
2022-11-27T08:06:49.694Z,101605.81
2022-11-27T08:10:51.239Z,101598.56
2022-11-27T08:14:52.778Z,101591.59
2022-11-27T08:18:54.454Z,101580.81
2022-11-27T08:23:02.295Z,101551.59
2022-11-27T08:27:04.567Z,101536.66
2022-11-27T08:31:08.864Z,101547.78
2022-11-27T08:35:11.771Z,101567.47
2022-11-27T08:39:14.325Z,101555.31
2022-11-27T08:43:15.876Z,101547.81
2022-11-27T08:47:17.396Z,101568.81
2022-11-27T08:51:19.013Z,101568.13
2022-11-27T08:55:20.624Z,101563.94
2022-11-27T08:59:22.125Z,101574.31
2022-11-27T09:03:23.648Z,101566.94
2022-11-27T09:07:25.563Z,101547.28
2022-11-27T09:11:31.118Z,101532.25
2022-11-27T09:15:32.724Z,101545.56
2022-11-27T09:19:34.251Z,101535.03
2022-11-27T09:23:37.487Z,101534.81
2022-11-27T09:27:39.099Z,101540.56
2022-11-27T09:31:40.733Z,101545.91
2022-11-27T09:35:42.357Z,101550.22
2022-11-27T09:39:43.939Z,101545.38
2022-11-27T09:43:59.044Z,101534.88
2022-11-27T09:48:05.295Z,101528.03
2022-11-27T09:52:38.240Z,101522.84
2022-11-27T09:56:42.872Z,101504.56
2022-11-27T10:00:47.894Z,101501.53
2022-11-27T10:05:12.872Z,101505.78
2022-11-27T10:09:27.613Z,101489.22
2022-11-27T10:13:47.670Z,101477.53
2022-11-27T10:17:58.358Z,101461.66
2022-11-27T10:22:10.490Z,101445.72
2022-11-27T10:26:18.642Z,101440.53
2022-11-27T10:30:21.757Z,101439.84
2022-11-27T10:34:55.444Z,101436.31
2022-11-27T10:38:59.866Z,101416.34
2022-11-27T10:43:15.787Z,101408.50
2022-11-27T10:47:20.268Z,101404.00
2022-11-27T10:51:29.444Z,101391.97
2022-11-27T10:55:55.562Z,101374.69
2022-11-27T11:00:05.206Z,101375.19
2022-11-27T11:04:31.353Z,101366.00
2022-11-27T11:08:30.083Z,101368.03
2022-11-27T11:12:31.725Z,101354.88
2022-11-27T11:16:42.987Z,101355.91
2022-11-27T11:20:48.903Z,101343.00
2022-11-27T11:24:53.031Z,101325.09
2022-11-27T11:28:57.581Z,101323.44
2022-11-27T11:33:02.211Z,101321.00
2022-11-27T11:37:07.306Z,101315.78
2022-11-27T11:41:09.549Z,101315.09
2022-11-27T11:45:11.003Z,101306.44
2022-11-27T11:49:26.866Z,101306.66
2022-11-27T11:53:38.868Z,101298.28
2022-11-27T11:58:10.178Z,101301.28
2022-11-27T12:02:25.276Z,101289.03
2022-11-27T12:06:37.900Z,101294.34
2022-11-27T12:10:53.871Z,101292.91
2022-11-27T12:15:15.849Z,101296.94
2022-11-27T12:20:00.120Z,101271.09
2022-11-27T12:24:09.622Z,101262.47
2022-11-27T12:28:29.692Z,101240.31
2022-11-27T12:32:34.357Z,101234.59
2022-11-27T12:37:00.600Z,101231.59
2022-11-27T12:41:33.441Z,101226.16
2022-11-27T12:45:46.571Z,101234.69
2022-11-27T12:49:53.091Z,101229.34
2022-11-27T12:54:00.700Z,101227.66
2022-11-27T12:58:07.016Z,101222.09
2022-11-27T13:02:20.709Z,101225.28
2022-11-27T13:06:27.902Z,101213.47
2022-11-27T13:10:41.300Z,101203.81
2022-11-27T13:14:46.441Z,101209.81
2022-11-27T13:19:12.908Z,101211.09
2022-11-27T13:23:15.425Z,101208.38
2022-11-27T13:27:20.970Z,101208.38
2022-11-27T13:31:26.751Z,101209.16
2022-11-27T13:35:36.439Z,101210.63
2022-11-27T13:39:40.522Z,101199.22
2022-11-27T13:43:44.206Z,101201.13
2022-11-27T13:47:46.594Z,101199.47
2022-11-27T13:51:48.243Z,101183.28
2022-11-27T13:55:56.623Z,101174.59
2022-11-27T14:00:16.178Z,101158.59
2022-11-27T14:04:17.729Z,101142.69
2022-11-27T14:08:33.375Z,101136.00
2022-11-27T14:12:36.260Z,101123.28
2022-11-27T14:16:39.531Z,101104.09
2022-11-27T14:21:23.181Z,101086.53
2022-11-27T14:25:34.086Z,101074.03
2022-11-27T14:29:35.763Z,101079.09
2022-11-27T14:34:07.431Z,101079.19
2022-11-27T14:38:10.138Z,101068.75
2022-11-27T14:42:32.979Z,101045.72
2022-11-27T14:46:37.424Z,101053.88
2022-11-27T14:50:39.634Z,101057.06
2022-11-27T14:54:41.923Z,101074.78
2022-11-27T14:58:50.139Z,101066.97
2022-11-27T15:02:52.145Z,101057.56
2022-11-27T15:06:55.963Z,101062.56
2022-11-27T15:10:59.559Z,101062.56
2022-11-27T15:15:18.091Z,101064.84
2022-11-27T15:19:32.743Z,101056.06
2022-11-27T15:23:35.363Z,101043.41
2022-11-27T15:27:47.447Z,101046.81
2022-11-27T15:31:52.375Z,101035.59
2022-11-27T15:36:06.255Z,101017.06
2022-11-27T15:40:24.765Z,101014.34
2022-11-27T15:44:28.639Z,101028.75
2022-11-27T15:48:30.212Z,101023.66
2022-11-27T15:52:31.878Z,101024.00
2022-11-27T15:56:33.401Z,101012.84
2022-11-27T16:00:35.057Z,101001.09
2022-11-27T16:04:36.600Z,100985.06
2022-11-27T16:08:38.180Z,100977.44
2022-11-27T16:12:39.840Z,100979.81
2022-11-27T16:16:41.574Z,100977.88
2022-11-27T16:20:43.188Z,100969.91
2022-11-27T16:24:44.876Z,100957.19
2022-11-27T16:28:46.478Z,100960.59
2022-11-27T16:32:50.548Z,100951.91
2022-11-27T16:36:52.938Z,100949.09
2022-11-27T16:40:59.918Z,100944.16
2022-11-27T16:45:02.235Z,100956.53
2022-11-27T16:49:09.037Z,100942.38
2022-11-27T16:53:10.635Z,100939.59
2022-11-27T16:57:12.983Z,100941.94
2022-11-27T17:01:18.264Z,100934.91
2022-11-27T17:05:19.831Z,100920.09
2022-11-27T17:09:24.611Z,100927.47
2022-11-27T17:13:26.608Z,100897.78
2022-11-27T17:17:28.326Z,100872.00
2022-11-27T17:21:31.734Z,100875.84
2022-11-27T17:25:33.703Z,100874.47
2022-11-27T17:29:36.097Z,100862.72
2022-11-27T17:33:38.262Z,100864.56
2022-11-27T17:37:39.854Z,100884.81
2022-11-27T17:41:44.451Z,100899.22
2022-11-27T17:45:46.049Z,100887.44
2022-11-27T17:49:47.737Z,100870.69
2022-11-27T17:53:49.492Z,100862.34
2022-11-27T17:57:53.317Z,100845.59
2022-11-27T18:01:55.099Z,100855.25
2022-11-27T18:06:01.510Z,100832.69
2022-11-27T18:10:03.873Z,100826.81
2022-11-27T18:14:05.620Z,100812.44
2022-11-27T18:18:07.733Z,100808.97
2022-11-27T18:22:11.203Z,100804.97
2022-11-27T18:26:21.003Z,100783.00
2022-11-27T18:30:28.710Z,100784.75
2022-11-27T18:34:30.262Z,100771.94
2022-11-27T18:38:33.102Z,100777.03
2022-11-27T18:42:35.018Z,100766.94
2022-11-27T18:46:37.249Z,100780.63
2022-11-27T18:50:38.874Z,100776.00
2022-11-27T18:54:40.506Z,100758.88
2022-11-27T18:58:42.761Z,100747.19
2022-11-27T19:02:46.099Z,100757.47
2022-11-27T19:06:47.829Z,100756.34
2022-11-27T19:10:49.526Z,100744.16
2022-11-27T19:14:51.375Z,100740.19
2022-11-27T19:18:56.840Z,100741.22
2022-11-27T19:22:58.498Z,100714.25
2022-11-27T19:27:00.106Z,100716.81
2022-11-27T19:31:10.114Z,100734.63
2022-11-27T19:35:12.758Z,100734.22
2022-11-27T19:39:15.273Z,100731.84
2022-11-27T19:43:17.730Z,100723.50
2022-11-27T19:47:19.703Z,100722.97
2022-11-27T19:51:21.284Z,100707.16
2022-11-27T19:55:22.891Z,100732.50
2022-11-27T19:59:26.186Z,100708.94
2022-11-27T20:03:29.172Z,100698.13
2022-11-27T20:07:30.809Z,100688.97
2022-11-27T20:11:35.168Z,100679.91
2022-11-27T20:15:39.308Z,100686.06
2022-11-27T20:19:41.234Z,100690.50
2022-11-27T20:23:43.919Z,100694.75
2022-11-27T20:27:46.011Z,100686.59
2022-11-27T20:31:48.690Z,100680.03
2022-11-27T20:35:50.378Z,100673.53
2022-11-27T20:39:52.033Z,100678.50
2022-11-27T20:43:56.296Z,100699.22
2022-11-27T20:47:57.927Z,100689.34
2022-11-27T20:52:03.276Z,100684.88
2022-11-27T20:56:06.555Z,100670.25
2022-11-27T21:00:09.781Z,100678.34
2022-11-27T21:04:19.652Z,100669.03
2022-11-27T21:08:22.384Z,100667.38
2022-11-27T21:12:24.004Z,100659.56
2022-11-27T21:16:28.368Z,100661.41
2022-11-27T21:20:31.131Z,100660.53
2022-11-27T21:24:32.797Z,100653.75
2022-11-27T21:28:35.059Z,100640.88
2022-11-27T21:32:36.889Z,100635.88
2022-11-27T21:36:38.883Z,100635.69
2022-11-27T21:40:40.461Z,100624.78
2022-11-27T21:44:42.440Z,100627.44
2022-11-27T21:48:46.195Z,100617.97
2022-11-27T21:52:48.012Z,100614.38
2022-11-27T21:56:53.387Z,100601.72
2022-11-27T22:00:55.012Z,100586.13
2022-11-27T22:04:56.605Z,100591.22
2022-11-27T22:08:59.025Z,100596.25
2022-11-27T22:13:00.591Z,100598.16
2022-11-27T22:17:02.248Z,100591.47
2022-11-27T22:21:08.177Z,100583.72
2022-11-27T22:25:10.075Z,100588.75
2022-11-27T22:29:11.815Z,100576.91
2022-11-27T22:33:13.468Z,100576.19
2022-11-27T22:37:15.189Z,100556.69
2022-11-27T22:41:18.028Z,100556.75
2022-11-27T22:45:20.274Z,100549.69
2022-11-27T22:49:21.799Z,100546.09
2022-11-27T22:53:23.406Z,100546.19
2022-11-27T22:57:25.703Z,100530.94
2022-11-27T23:01:29.027Z,100540.38
2022-11-27T23:05:30.752Z,100531.69
2022-11-27T23:09:33.520Z,100530.94
2022-11-27T23:13:35.449Z,100541.09
2022-11-27T23:17:36.996Z,100543.66
2022-11-27T23:21:39.075Z,100535.22
2022-11-27T23:25:40.674Z,100534.41
2022-11-27T23:29:42.237Z,100522.72
2022-11-27T23:33:44.161Z,100520.78
2022-11-27T23:37:45.815Z,100533.31
2022-11-27T23:41:49.437Z,100520.34
2022-11-27T23:45:51.021Z,100523.59
2022-11-27T23:49:52.569Z,100520.03
2022-11-27T23:53:54.460Z,100518.41
2022-11-27T23:57:55.939Z,100509.75
